Waddington, United Kingdom
Current Conditions -  °F | °C
As of 5:50 PM on Tuesday 21 Oct 2014 (Local Time) from EGXW Reporting Station
Few Clouds Few Clouds  
Wind Chill: 41°   Ceiling: Unl
Heat Index: 48°   Visibility: 6mi
Dew Point: 34°   Wind: 20mph
Humidity: 57%   Direction: 290°WNW
Pressure: 29.74"   Gusts: 32mph
Location:  53.17°N, 0.52°W
Report Text: EGXW 211650Z 29017G28KT 9999 FEW035 09/01 Q1007 BLU NOSIG
Loading
Personal Weather Stations






























Interactive Weather Map
Tropical Storm Tracking
New forecast layout! Learn more

10-Day Weather Forecast

Advertisements
Track Severe Weather on mobile